createdAt,value
2019-02-27T00:01:20.824Z,167.00
2019-02-27T00:03:49.048Z,150.97
2019-02-27T00:06:17.236Z,155.37
2019-02-27T00:08:45.473Z,152.37
2019-02-27T00:11:13.664Z,154.50
2019-02-27T00:13:41.891Z,159.17
2019-02-27T00:16:11.124Z,159.90
2019-02-27T00:18:39.946Z,169.57
2019-02-27T00:21:11.010Z,171.23
2019-02-27T00:23:38.088Z,159.17
2019-02-27T00:26:08.777Z,147.73
2019-02-27T00:28:36.345Z,173.33
2019-02-27T00:31:04.565Z,157.80
2019-02-27T00:33:32.783Z,165.10
2019-02-27T00:36:01.006Z,159.50
2019-02-27T00:38:29.225Z,167.60
2019-02-27T00:40:57.441Z,170.93
2019-02-27T00:43:25.985Z,166.27
2019-02-27T00:45:55.559Z,167.57
2019-02-27T00:48:26.017Z,164.00
2019-02-27T00:50:53.701Z,161.83
2019-02-27T00:53:24.519Z,154.47
2019-02-27T00:55:52.380Z,168.07
2019-02-27T00:58:20.656Z,162.43
2019-02-27T01:00:48.901Z,138.43
2019-02-27T01:03:17.125Z,154.37
2019-02-27T01:05:45.373Z,158.67
2019-02-27T01:08:13.564Z,137.20
2019-02-27T01:10:42.852Z,148.07
2019-02-27T01:13:11.685Z,139.30
2019-02-27T01:15:41.771Z,145.17
2019-02-27T01:18:09.803Z,139.90
2019-02-27T01:20:38.020Z,132.30
2019-02-27T01:28:01.640Z,132.30
2019-02-27T01:30:29.932Z,141.03
2019-02-27T01:32:58.216Z,146.33
2019-02-27T01:35:26.431Z,125.10
2019-02-27T01:37:54.631Z,139.80
2019-02-27T01:40:22.857Z,134.97
2019-02-27T01:42:52.357Z,147.63
2019-02-27T01:45:21.729Z,149.53
2019-02-27T01:47:50.053Z,144.05
2019-02-27T01:50:28.314Z,138.57
2019-02-27T01:52:56.559Z,157.97
2019-02-27T01:55:24.857Z,135.00
2019-02-27T01:57:53.048Z,145.10
2019-02-27T02:00:23.296Z,162.65
2019-02-27T02:02:51.216Z,162.03
2019-02-27T02:05:19.625Z,166.83
2019-02-27T02:07:47.990Z,166.87
2019-02-27T02:10:16.424Z,149.00
2019-02-27T02:12:45.813Z,159.83
2019-02-27T02:15:18.545Z,146.95
2019-02-27T02:17:50.928Z,148.40
2019-02-27T02:20:27.073Z,135.43
2019-02-27T02:22:54.801Z,141.03
2019-02-27T02:25:30.429Z,139.87
2019-02-27T02:28:00.185Z,137.57
2019-02-27T02:30:48.426Z,134.27
2019-02-27T02:33:29.032Z,125.83
2019-02-27T02:35:55.431Z,126.83
2019-02-27T02:38:31.220Z,134.57
2019-02-27T02:41:10.222Z,127.10
2019-02-27T02:43:41.543Z,129.47
2019-02-27T02:46:11.473Z,126.57
2019-02-27T02:48:41.235Z,141.77
2019-02-27T02:51:29.082Z,148.03
2019-02-27T02:54:17.505Z,177.23
2019-02-27T02:56:47.310Z,225.80
2019-02-27T02:59:33.834Z,167.87
2019-02-27T03:02:03.647Z,124.07
2019-02-27T03:04:48.357Z,179.40
2019-02-27T03:07:19.814Z,150.03
2019-02-27T03:09:49.672Z,123.80
2019-02-27T03:12:37.627Z,137.57
2019-02-27T03:15:19.578Z,214.33
2019-02-27T03:18:05.813Z,192.67
2019-02-27T03:20:44.679Z,155.17
2019-02-27T03:23:15.585Z,187.37
2019-02-27T03:25:48.873Z,190.50
2019-02-27T03:28:21.314Z,165.93
2019-02-27T03:30:51.048Z,160.13
2019-02-27T03:33:37.578Z,187.23
2019-02-27T03:36:07.311Z,190.60
2019-02-27T03:38:49.127Z,155.00
2019-02-27T03:41:24.525Z,125.43
2019-02-27T03:44:03.421Z,262.30
2019-02-27T03:46:42.414Z,109.90
2019-02-27T03:49:15.807Z,133.17
2019-02-27T03:52:02.049Z,123.77
2019-02-27T03:54:31.816Z,113.23
2019-02-27T03:57:01.681Z,132.60
2019-02-27T03:59:31.485Z,135.33
2019-02-27T04:02:07.284Z,136.80
2019-02-27T04:04:37.023Z,132.57
2019-02-27T04:07:06.756Z,131.30
2019-02-27T04:09:34.987Z,150.20
2019-02-27T04:12:03.390Z,156.73
2019-02-27T04:14:32.507Z,185.27
2019-02-27T04:17:05.389Z,156.00
2019-02-27T04:19:31.026Z,117.50
2019-02-27T04:22:01.052Z,153.03
2019-02-27T04:24:29.192Z,170.97
2019-02-27T04:26:57.429Z,108.20
2019-02-27T04:29:25.654Z,158.07
2019-02-27T04:31:53.868Z,143.50
2019-02-27T04:34:22.094Z,115.27
2019-02-27T04:36:50.332Z,129.43
2019-02-27T04:39:18.533Z,127.50
2019-02-27T04:41:46.756Z,107.03
2019-02-27T04:44:15.013Z,118.40
2019-02-27T04:46:43.273Z,108.53
2019-02-27T04:49:11.463Z,136.83
2019-02-27T04:51:39.764Z,113.97
2019-02-27T04:54:07.957Z,100.67
2019-02-27T04:56:36.142Z,91.90
2019-02-27T04:59:04.379Z,86.50
2019-02-27T05:01:36.341Z,106.00
2019-02-27T05:04:02.517Z,120.70
2019-02-27T05:06:30.714Z,93.97
2019-02-27T05:09:00.259Z,87.30
2019-02-27T05:11:29.042Z,124.40
2019-02-27T05:13:57.224Z,99.27
2019-02-27T05:16:25.502Z,106.03
2019-02-27T05:18:53.735Z,89.20
2019-02-27T05:21:21.923Z,96.23
2019-02-27T05:23:50.189Z,74.10
2019-02-27T05:26:18.402Z,70.97
2019-02-27T05:28:46.613Z,70.77
2019-02-27T05:31:18.279Z,67.00
2019-02-27T05:33:44.809Z,68.67
2019-02-27T05:36:12.987Z,64.87
2019-02-27T05:38:43.674Z,81.23
2019-02-27T05:41:11.147Z,73.80
2019-02-27T05:43:39.360Z,68.13
2019-02-27T05:46:07.581Z,75.60
2019-02-27T05:48:35.781Z,74.10
2019-02-27T05:51:04.906Z,70.77
2019-02-27T05:53:33.925Z,80.90
2019-02-27T05:56:02.137Z,72.20
2019-02-27T05:58:30.382Z,81.37
2019-02-27T06:00:58.570Z,85.30
2019-02-27T06:03:26.791Z,82.33
2019-02-27T06:05:54.976Z,87.47
2019-02-27T06:08:23.193Z,87.13
2019-02-27T06:10:55.002Z,95.70
2019-02-27T06:13:21.342Z,90.13
2019-02-27T06:15:49.609Z,91.13
2019-02-27T06:18:22.504Z,84.73
2019-02-27T06:20:47.737Z,86.45
2019-02-27T06:23:16.013Z,92.33
2019-02-27T06:25:44.192Z,88.20
2019-02-27T06:28:12.420Z,98.70
2019-02-27T06:30:40.667Z,104.37
2019-02-27T06:33:11.627Z,92.97
2019-02-27T06:35:38.773Z,99.63
2019-02-27T06:38:07.205Z,102.10
2019-02-27T06:40:35.418Z,94.77
2019-02-27T06:43:03.628Z,98.20
2019-02-27T06:45:31.869Z,108.70
2019-02-27T06:48:00.054Z,94.77
2019-02-27T06:50:28.268Z,103.40
2019-02-27T06:52:56.489Z,98.20
2019-02-27T06:55:25.439Z,92.90
2019-02-27T06:57:54.637Z,94.97
2019-02-27T07:00:23.423Z,97.73
2019-02-27T07:02:55.160Z,94.97
2019-02-27T07:05:21.566Z,93.40
2019-02-27T07:07:49.778Z,92.03
2019-02-27T07:10:20.026Z,101.50
2019-02-27T07:12:48.267Z,98.00
2019-02-27T07:15:17.358Z,81.53
2019-02-27T07:17:45.610Z,89.57
2019-02-27T07:20:14.784Z,90.80
2019-02-27T07:22:45.647Z,95.30
2019-02-27T07:25:14.453Z,99.27
2019-02-27T07:27:42.647Z,98.17
2019-02-27T07:30:12.242Z,94.30
2019-02-27T07:32:40.538Z,81.50
2019-02-27T07:35:09.520Z,86.20
2019-02-27T07:37:37.772Z,85.70
2019-02-27T07:40:16.654Z,97.80
2019-02-27T07:42:44.874Z,96.87
2019-02-27T07:45:14.273Z,83.43
2019-02-27T07:47:42.501Z,91.27
2019-02-27T07:50:12.276Z,86.57
2019-02-27T07:52:40.525Z,82.43
2019-02-27T07:55:21.173Z,87.97
2019-02-27T07:57:40.078Z,79.80
2019-02-27T08:00:09.849Z,79.00
2019-02-27T08:02:38.105Z,89.80
2019-02-27T08:05:07.832Z,88.30
2019-02-27T08:10:04.802Z,77.20
2019-02-27T08:12:33.157Z,90.50
2019-02-27T08:34:41.803Z,75.85
2019-02-27T08:37:10.027Z,71.40
2019-02-27T08:39:38.220Z,63.70
2019-02-27T08:42:06.448Z,67.53
2019-02-27T08:44:34.705Z,67.00
2019-02-27T08:49:32.001Z,59.05
2019-02-27T08:52:00.255Z,104.25
2019-02-27T08:54:32.279Z,69.20
2019-02-27T08:56:58.360Z,69.80
2019-02-27T08:59:26.571Z,63.73
2019-02-27T09:01:56.364Z,67.70
2019-02-27T09:04:24.659Z,63.63
2019-02-27T09:07:02.139Z,58.30
2019-02-27T09:09:28.619Z,58.13
2019-02-27T09:11:56.849Z,59.50
2019-02-27T09:14:25.101Z,64.57
2019-02-27T09:16:53.288Z,71.93
2019-02-27T09:19:21.529Z,64.27
2019-02-27T09:24:17.089Z,64.50
2019-02-27T09:26:45.311Z,59.80
2019-02-27T09:29:18.446Z,61.60
2019-02-27T09:31:50.697Z,58.80
2019-02-27T09:34:13.327Z,60.27
2019-02-27T09:36:43.192Z,64.00
2019-02-27T09:39:11.564Z,62.53
2019-02-27T09:41:39.914Z,60.77
2019-02-27T09:44:08.141Z,53.13
2019-02-27T09:46:36.327Z,66.10
2019-02-27T09:49:06.789Z,59.23
2019-02-27T09:51:34.593Z,60.90
2019-02-27T09:54:02.829Z,52.70
2019-02-27T09:56:32.750Z,60.53
2019-02-27T09:59:01.326Z,55.80
2019-02-27T10:01:34.406Z,57.33
2019-02-27T10:03:59.453Z,55.07
2019-02-27T10:06:27.700Z,50.83
2019-02-27T10:08:56.458Z,48.50
2019-02-27T10:11:25.845Z,51.20
2019-02-27T10:13:54.057Z,47.53
2019-02-27T10:16:22.259Z,56.63
2019-02-27T10:18:54.836Z,54.07
2019-02-27T10:21:20.398Z,55.57
2019-02-27T10:23:48.632Z,55.67
2019-02-27T10:26:19.367Z,56.25
2019-02-27T10:28:46.817Z,49.43
2019-02-27T10:31:15.000Z,54.53
2019-02-27T10:33:43.650Z,55.45
2019-02-27T10:38:40.438Z,48.20
2019-02-27T10:41:08.880Z,49.55
2019-02-27T10:43:37.142Z,52.63
2019-02-27T10:46:05.351Z,47.40
2019-02-27T10:48:33.589Z,50.70
2019-02-27T10:51:01.768Z,50.13
2019-02-27T10:53:29.987Z,51.87
2019-02-27T10:55:58.205Z,41.60
2019-02-27T10:58:26.428Z,36.80
2019-02-27T11:00:54.654Z,40.80
2019-02-27T11:03:23.666Z,41.63
2019-02-27T11:05:55.472Z,38.30
2019-02-27T11:08:22.741Z,35.37
2019-02-27T11:10:51.041Z,35.90
2019-02-27T11:13:19.393Z,34.23
2019-02-27T11:15:47.597Z,30.07
2019-02-27T11:18:15.839Z,31.60
2019-02-27T11:20:44.060Z,31.60
2019-02-27T11:23:12.293Z,29.50
2019-02-27T11:25:40.475Z,32.07
2019-02-27T11:28:08.709Z,30.50
2019-02-27T11:30:37.789Z,31.43
2019-02-27T11:33:06.126Z,31.17
2019-02-27T11:35:34.347Z,34.53
2019-02-27T11:38:02.560Z,29.87
2019-02-27T11:40:30.760Z,31.00
2019-02-27T11:43:00.950Z,27.80
2019-02-27T11:45:29.081Z,27.37
2019-02-27T11:47:57.301Z,28.80
2019-02-27T11:50:25.559Z,28.77
2019-02-27T12:00:13.648Z,26.80
2019-02-27T12:02:41.991Z,28.63
2019-02-27T12:05:11.633Z,24.83
2019-02-27T12:07:39.812Z,26.00
2019-02-27T12:10:09.627Z,23.00
2019-02-27T12:12:37.945Z,23.63
2019-02-27T12:15:09.101Z,25.90
2019-02-27T12:17:37.629Z,26.80
2019-02-27T12:20:06.987Z,28.67
2019-02-27T12:22:35.946Z,22.80
2019-02-27T12:25:05.772Z,23.17
2019-02-27T12:27:48.669Z,23.17
2019-02-27T12:30:05.471Z,26.60
2019-02-27T12:32:33.685Z,25.37
2019-02-27T12:35:03.158Z,28.43
2019-02-27T12:37:34.136Z,28.53
2019-02-27T12:40:01.424Z,25.67
2019-02-27T12:42:37.112Z,27.53
2019-02-27T12:44:59.536Z,24.20
2019-02-27T12:47:27.753Z,25.57
2019-02-27T12:49:56.002Z,26.67
2019-02-27T12:52:24.183Z,27.60
2019-02-27T12:54:52.416Z,24.33
2019-02-27T12:57:20.645Z,23.50
2019-02-27T12:59:48.860Z,25.07
2019-02-27T13:02:17.092Z,24.27
2019-02-27T13:04:45.314Z,23.97
2019-02-27T13:07:13.498Z,29.57
2019-02-27T13:09:41.721Z,27.73
2019-02-27T13:12:09.957Z,26.53
2019-02-27T13:14:38.178Z,27.67
2019-02-27T13:17:06.389Z,24.83
2019-02-27T13:19:34.614Z,24.53
2019-02-27T13:22:02.800Z,28.50
2019-02-27T13:24:31.073Z,22.33
2019-02-27T13:26:59.325Z,23.77
2019-02-27T13:29:27.536Z,23.00
2019-02-27T13:31:56.623Z,24.90
2019-02-27T13:34:25.084Z,25.10
2019-02-27T13:36:53.286Z,25.50
2019-02-27T13:39:25.429Z,24.57
2019-02-27T13:41:51.393Z,25.27
2019-02-27T13:44:19.657Z,30.13
2019-02-27T13:46:47.838Z,25.50
2019-02-27T14:11:24.956Z,24.90
2019-02-27T14:13:54.049Z,24.60
2019-02-27T14:16:22.319Z,23.80
2019-02-27T14:18:50.668Z,24.33
2019-02-27T14:21:18.994Z,25.40
2019-02-27T14:23:48.023Z,24.60
2019-02-27T14:26:16.312Z,24.17
2019-02-27T14:28:44.496Z,23.70
2019-02-27T14:31:13.264Z,27.53
2019-02-27T14:33:41.517Z,27.43
2019-02-27T14:36:09.704Z,23.20
2019-02-27T14:38:37.924Z,27.00
2019-02-27T14:41:06.143Z,24.23
2019-02-27T14:43:34.353Z,25.57
2019-02-27T14:46:02.610Z,23.80
2019-02-27T14:48:30.796Z,24.57
2019-02-27T14:50:59.203Z,24.30
2019-02-27T14:53:27.587Z,24.27
2019-02-27T14:55:55.804Z,22.30
2019-02-27T14:58:24.979Z,20.40
2019-02-27T15:00:53.438Z,24.80
2019-02-27T15:03:21.672Z,24.50
2019-02-27T15:05:49.860Z,24.63
2019-02-27T15:08:18.090Z,23.87
2019-02-27T15:10:46.313Z,22.97
2019-02-27T15:13:14.534Z,24.00
2019-02-27T15:15:43.728Z,23.23
2019-02-27T15:18:14.049Z,22.43
2019-02-27T15:20:42.563Z,22.30
2019-02-27T15:23:10.804Z,25.60
2019-02-27T15:25:42.238Z,20.50
2019-02-27T15:28:08.918Z,21.77
2019-02-27T15:30:37.100Z,23.43
2019-02-27T15:33:05.515Z,21.70
2019-02-27T15:35:33.885Z,22.53
2019-02-27T15:40:30.301Z,22.10
2019-02-27T15:42:58.619Z,21.07
2019-02-27T15:45:27.709Z,25.10
2019-02-27T15:47:56.009Z,20.63
2019-02-27T15:50:25.185Z,20.80
2019-02-27T15:52:53.439Z,18.80
2019-02-27T15:55:21.627Z,21.67
2019-02-27T16:00:19.921Z,18.23
2019-02-27T16:02:48.171Z,18.13
2019-02-27T16:05:16.425Z,19.30
2019-02-27T16:07:48.329Z,21.40
2019-02-27T16:10:16.035Z,24.73
2019-02-27T16:12:44.260Z,20.17
2019-02-27T16:15:16.953Z,15.03
2019-02-27T16:17:46.221Z,17.40
2019-02-27T16:20:16.741Z,19.03
2019-02-27T16:22:45.157Z,18.80
2019-02-27T16:25:18.266Z,18.53
2019-02-27T16:27:44.845Z,19.67
2019-02-27T16:30:15.279Z,18.10
2019-02-27T16:32:47.999Z,17.93
2019-02-27T16:35:13.524Z,18.07
2019-02-27T16:37:41.765Z,17.97
2019-02-27T16:40:11.526Z,18.97
2019-02-27T16:42:39.807Z,22.27
2019-02-27T16:45:09.549Z,17.70
2019-02-27T16:47:37.741Z,21.67
2019-02-27T16:50:10.170Z,26.53
2019-02-27T16:52:39.178Z,26.87
2019-02-27T16:55:09.823Z,17.10
2019-02-27T16:57:38.018Z,23.20
2019-02-27T17:00:08.015Z,23.10
2019-02-27T17:02:38.354Z,19.30
2019-02-27T17:05:08.848Z,25.63
2019-02-27T17:22:22.580Z,25.70
2019-02-27T17:39:36.784Z,31.37
2019-02-27T17:42:04.964Z,28.50
2019-02-27T17:44:35.293Z,30.10
2019-02-27T17:47:03.085Z,28.17
2019-02-27T17:49:31.301Z,28.87
2019-02-27T17:51:59.622Z,31.43
2019-02-27T17:54:31.310Z,35.40
2019-02-27T17:56:57.794Z,31.10
2019-02-27T17:59:26.010Z,31.43
2019-02-27T18:01:58.514Z,33.13
2019-02-27T18:04:33.049Z,31.93
2019-02-27T18:07:01.269Z,29.97
2019-02-27T18:09:31.380Z,33.00
2019-02-27T18:11:59.618Z,26.47
2019-02-27T18:14:28.718Z,31.15
2019-02-27T18:16:59.299Z,28.50
2019-02-27T18:19:26.872Z,30.10
2019-02-27T18:21:55.089Z,25.40
2019-02-27T18:24:24.272Z,31.97
2019-02-27T18:26:53.718Z,27.77
2019-02-27T18:29:21.970Z,28.40
2019-02-27T18:31:51.124Z,31.00
2019-02-27T18:34:21.639Z,28.90
2019-02-27T18:39:16.584Z,33.30
2019-02-27T18:49:09.597Z,25.90
2019-02-27T18:54:06.022Z,34.20
2019-02-27T18:56:36.921Z,35.90
2019-02-27T18:59:05.100Z,30.60
2019-02-27T19:01:34.249Z,31.17
2019-02-27T19:04:02.464Z,29.07
2019-02-27T19:06:31.685Z,24.67
2019-02-27T19:09:00.807Z,27.10
2019-02-27T19:11:29.941Z,27.40
2019-02-27T19:13:58.189Z,27.63
2019-02-27T19:16:26.440Z,31.70
2019-02-27T19:18:55.572Z,29.90
2019-02-27T19:21:23.789Z,28.57
2019-02-27T19:23:53.334Z,27.97
2019-02-27T19:26:21.739Z,25.03
2019-02-27T19:28:49.979Z,32.40
2019-02-27T19:31:18.165Z,29.07
2019-02-27T19:33:46.357Z,31.83
2019-02-27T19:36:19.210Z,33.87
2019-02-27T19:38:47.704Z,30.87
2019-02-27T19:41:16.409Z,29.97
2019-02-27T19:43:45.613Z,28.20
2019-02-27T19:46:13.849Z,27.27
2019-02-27T19:48:42.952Z,41.60
2019-02-27T19:51:11.332Z,36.80
2019-02-27T19:53:40.166Z,38.13
2019-02-27T19:56:08.936Z,36.60
2019-02-27T19:58:38.107Z,33.10
2019-02-27T20:01:09.102Z,28.10
2019-02-27T20:03:37.134Z,27.60
2019-02-27T20:06:05.428Z,25.73
2019-02-27T20:08:33.673Z,34.77
2019-02-27T20:11:05.544Z,24.70
2019-02-27T20:13:31.841Z,27.43
2019-02-27T20:16:01.014Z,25.20
2019-02-27T20:18:29.193Z,30.17
2019-02-27T20:20:58.589Z,23.00
2019-02-27T20:23:26.805Z,30.40
2019-02-27T20:25:56.147Z,29.33
2019-02-27T20:28:24.537Z,35.97
2019-02-27T20:30:52.745Z,24.37
2019-02-27T20:33:22.425Z,26.60
2019-02-27T20:35:52.281Z,40.00
2019-02-27T20:38:20.921Z,27.70
2019-02-27T20:40:49.157Z,23.87
2019-02-27T20:43:17.343Z,28.10
2019-02-27T20:45:45.662Z,24.30
2019-02-27T20:48:13.876Z,21.80
2019-02-27T20:50:46.762Z,21.60
2019-02-27T20:53:14.956Z,22.60
2019-02-27T20:55:43.160Z,29.13
2019-02-27T20:58:16.353Z,32.40
2019-02-27T21:00:41.362Z,26.37
2019-02-27T21:03:09.610Z,20.80
2019-02-27T21:05:40.845Z,24.23
2019-02-27T21:08:08.076Z,23.27
2019-02-27T21:10:36.280Z,21.00
2019-02-27T21:13:04.593Z,23.67
2019-02-27T21:15:33.461Z,22.60
2019-02-27T21:18:02.104Z,22.07
2019-02-27T21:20:30.292Z,22.63
2019-02-27T21:22:59.864Z,22.37
2019-02-27T21:25:30.091Z,22.43
2019-02-27T21:27:58.276Z,21.40
2019-02-27T21:30:26.517Z,20.67
2019-02-27T21:32:54.737Z,18.80
2019-02-27T21:35:22.972Z,23.27
2019-02-27T21:37:51.178Z,22.80
2019-02-27T21:40:19.666Z,19.33
2019-02-27T21:42:50.775Z,24.53
2019-02-27T21:45:19.501Z,22.03
2019-02-27T21:47:51.391Z,26.67
2019-02-27T21:50:18.239Z,21.13
2019-02-27T21:52:46.453Z,17.87
2019-02-27T21:55:14.635Z,25.17
2019-02-27T21:57:42.861Z,20.67
2019-02-27T22:00:13.968Z,20.80
2019-02-27T22:02:42.686Z,19.20
2019-02-27T22:05:11.472Z,21.93
2019-02-27T22:07:39.679Z,17.37
2019-02-27T22:10:11.833Z,20.30
2019-02-27T22:12:40.062Z,23.70
2019-02-27T22:15:15.408Z,18.30
2019-02-27T22:17:43.586Z,20.30
2019-02-27T22:20:12.614Z,23.27
2019-02-27T22:22:41.493Z,17.87
2019-02-27T22:25:11.389Z,19.17
2019-02-27T22:27:39.620Z,18.27
2019-02-27T22:30:09.583Z,14.30
2019-02-27T22:32:37.764Z,17.60
2019-02-27T22:35:06.523Z,19.47
2019-02-27T22:37:34.749Z,16.97
2019-02-27T22:40:06.444Z,19.77
2019-02-27T22:42:33.357Z,18.20
2019-02-27T22:45:04.122Z,21.40
2019-02-27T22:47:31.460Z,16.77
2019-02-27T22:49:59.673Z,20.83
2019-02-27T22:52:27.892Z,23.13
2019-02-27T22:54:56.101Z,19.20
2019-02-27T22:57:24.279Z,21.93
2019-02-27T22:59:52.525Z,24.47
2019-02-27T23:02:21.620Z,24.60
2019-02-27T23:04:50.573Z,18.10
2019-02-27T23:07:21.341Z,19.80
2019-02-27T23:09:49.029Z,22.67
2019-02-27T23:12:17.229Z,23.40
2019-02-27T23:14:45.441Z,29.53
2019-02-27T23:17:13.668Z,18.07
2019-02-27T23:19:46.052Z,21.50
2019-02-27T23:22:11.747Z,22.73
2019-02-27T23:24:43.595Z,22.57
2019-02-27T23:27:09.867Z,24.80
2019-02-27T23:29:39.871Z,19.50
2019-02-27T23:32:07.987Z,19.60
2019-02-27T23:34:38.445Z,21.37
2019-02-27T23:37:07.473Z,23.43
2019-02-27T23:39:39.598Z,21.33
2019-02-27T23:42:06.435Z,23.03
2019-02-27T23:44:38.498Z,22.40
2019-02-27T23:47:04.741Z,21.67
2019-02-27T23:49:32.993Z,23.83
2019-02-27T23:52:01.229Z,21.83
2019-02-27T23:54:29.437Z,21.97
2019-02-27T23:56:57.657Z,21.37
2019-02-27T23:59:25.870Z,22.40
